sim
Sign-in with your pilot id or email,
or register
Callsign
Passwort

Schedule Details

Flight Number: OEO5841
Departure: Cologne Bonn Airport (EDDK) at 10:35
Arrival: Fuerteventura Airport (GCFV) at 15:30

Weather Information
Getting current METAR information for EDDK 160350Z 11005KT CAVOK 06/M01 Q1026 NOSIG
Getting current METAR information for GCFV 160330Z AUTO 28005KT 9999 NCD 14/11 Q1017

Schedule Frequency

Route Map